Talihina, Oklahoma
Current Conditions -  °F | °C
As of 1:15 PM on Friday 28 Nov 2014 (Local Time) from KRKR Reporting Station
Clear Clear  
Wind Chill: 64°   Ceiling: Unl
Heat Index: 64°   Visibility: 10mi
Dew Point: 36°   Wind: 12mph
Humidity: 35%   Direction: 190°S
Pressure: 30.08"   Gusts: 23mph
Location:  34.75°N, 95.05°W
Report Text: KRKR 281915Z AUTO 19010G20KT 10SM CLR 18/02 A3008 RMK AO2 T01780021
Loading
Personal Weather Stations






























Interactive Weather Map New forecast layout! Learn more

10-Day Weather Forecast

Advertisements
Track Severe Weather on mobile